sensor_id;sensor_type;location;lat;lon;timestamp;temperature;humidity
53053;DHT22;38934;52.690;6.184;2023-04-25T00:01:40;5.60;99.90
53053;DHT22;38934;52.690;6.184;2023-04-25T00:04:07;5.60;99.90
53053;DHT22;38934;52.690;6.184;2023-04-25T00:06:34;5.60;99.90
53053;DHT22;38934;52.690;6.184;2023-04-25T00:09:03;6.00;99.90
53053;DHT22;38934;52.690;6.184;2023-04-25T00:11:30;5.50;99.90
53053;DHT22;38934;52.690;6.184;2023-04-25T00:13:56;5.50;99.90
53053;DHT22;38934;52.690;6.184;2023-04-25T00:16:23;5.50;99.90
53053;DHT22;38934;52.690;6.184;2023-04-25T00:18:51;5.50;99.90
53053;DHT22;38934;52.690;6.184;2023-04-25T00:21:19;5.40;99.90
53053;DHT22;38934;52.690;6.184;2023-04-25T00:23:47;5.40;99.90
53053;DHT22;38934;52.690;6.184;2023-04-25T00:26:13;5.40;99.90
53053;DHT22;38934;52.690;6.184;2023-04-25T00:28:42;5.40;99.90
53053;DHT22;38934;52.690;6.184;2023-04-25T00:31:08;5.30;99.90
53053;DHT22;38934;52.690;6.184;2023-04-25T00:33:54;5.30;99.90
53053;DHT22;38934;52.690;6.184;2023-04-25T00:36:23;5.30;99.90
53053;DHT22;38934;52.690;6.184;2023-04-25T00:38:55;5.30;99.90
53053;DHT22;38934;52.690;6.184;2023-04-25T00:41:36;5.50;99.90
53053;DHT22;38934;52.690;6.184;2023-04-25T00:44:09;5.30;99.90
53053;DHT22;38934;52.690;6.184;2023-04-25T00:46:39;5.30;99.90
53053;DHT22;38934;52.690;6.184;2023-04-25T00:49:05;5.20;99.90
53053;DHT22;38934;52.690;6.184;2023-04-25T00:51:32;5.20;99.90
53053;DHT22;38934;52.690;6.184;2023-04-25T00:54:00;5.20;99.90
53053;DHT22;38934;52.690;6.184;2023-04-25T00:56:26;5.20;99.90
53053;DHT22;38934;52.690;6.184;2023-04-25T00:58:54;5.20;99.90
53053;DHT22;38934;52.690;6.184;2023-04-25T01:01:23;5.20;99.90
53053;DHT22;38934;52.690;6.184;2023-04-25T01:03:49;5.20;99.90
53053;DHT22;38934;52.690;6.184;2023-04-25T01:06:16;5.20;99.90
53053;DHT22;38934;52.690;6.184;2023-04-25T01:08:42;5.20;99.90
53053;DHT22;38934;52.690;6.184;2023-04-25T01:11:09;6.40;99.90
53053;DHT22;38934;52.690;6.184;2023-04-25T01:13:35;5.20;99.90
53053;DHT22;38934;52.690;6.184;2023-04-25T01:16:02;5.20;99.90
53053;DHT22;38934;52.690;6.184;2023-04-25T01:18:34;5.20;99.90
53053;DHT22;38934;52.690;6.184;2023-04-25T01:21:10;5.30;99.90
53053;DHT22;38934;52.690;6.184;2023-04-25T01:23:38;5.30;99.90
53053;DHT22;38934;52.690;6.184;2023-04-25T01:26:06;5.30;99.90
53053;DHT22;38934;52.690;6.184;2023-04-25T01:28:34;5.40;99.90
53053;DHT22;38934;52.690;6.184;2023-04-25T01:31:00;5.40;99.90
53053;DHT22;38934;52.690;6.184;2023-04-25T01:33:26;5.40;99.90
53053;DHT22;38934;52.690;6.184;2023-04-25T01:35:52;5.40;99.90
53053;DHT22;38934;52.690;6.184;2023-04-25T01:38:18;5.40;99.90
53053;DHT22;38934;52.690;6.184;2023-04-25T01:40:45;5.40;99.90
53053;DHT22;38934;52.690;6.184;2023-04-25T01:43:11;5.40;99.90
53053;DHT22;38934;52.690;6.184;2023-04-25T01:45:43;5.40;99.90
53053;DHT22;38934;52.690;6.184;2023-04-25T01:48:10;5.40;99.90
53053;DHT22;38934;52.690;6.184;2023-04-25T01:50:40;5.40;99.90
53053;DHT22;38934;52.690;6.184;2023-04-25T01:53:09;4.60;99.90
53053;DHT22;38934;52.690;6.184;2023-04-25T01:55:37;5.40;99.90
53053;DHT22;38934;52.690;6.184;2023-04-25T01:58:06;5.40;99.90
53053;DHT22;38934;52.690;6.184;2023-04-25T02:00:35;5.40;99.90
53053;DHT22;38934;52.690;6.184;2023-04-25T02:03:05;5.40;99.90
53053;DHT22;38934;52.690;6.184;2023-04-25T02:05:38;5.40;99.90
53053;DHT22;38934;52.690;6.184;2023-04-25T02:08:07;5.40;99.90
53053;DHT22;38934;52.690;6.184;2023-04-25T02:10:35;5.40;99.90
53053;DHT22;38934;52.690;6.184;2023-04-25T02:13:03;5.40;99.90
53053;DHT22;38934;52.690;6.184;2023-04-25T02:15:30;5.40;99.90
53053;DHT22;38934;52.690;6.184;2023-04-25T02:17:58;5.50;99.90
53053;DHT22;38934;52.690;6.184;2023-04-25T02:20:27;5.50;99.90
53053;DHT22;38934;52.690;6.184;2023-04-25T02:22:52;5.50;99.90
53053;DHT22;38934;52.690;6.184;2023-04-25T02:25:19;5.40;99.90
53053;DHT22;38934;52.690;6.184;2023-04-25T02:27:46;5.40;99.90
53053;DHT22;38934;52.690;6.184;2023-04-25T02:30:15;5.40;99.90
53053;DHT22;38934;52.690;6.184;2023-04-25T02:32:41;5.40;99.90
53053;DHT22;38934;52.690;6.184;2023-04-25T02:35:07;5.40;99.90
53053;DHT22;38934;52.690;6.184;2023-04-25T02:37:34;5.40;99.90
53053;DHT22;38934;52.690;6.184;2023-04-25T02:40:04;5.70;99.90
53053;DHT22;38934;52.690;6.184;2023-04-25T02:42:30;5.40;99.90
53053;DHT22;38934;52.690;6.184;2023-04-25T02:44:58;5.40;99.90
53053;DHT22;38934;52.690;6.184;2023-04-25T02:47:24;5.40;99.90
53053;DHT22;38934;52.690;6.184;2023-04-25T02:49:50;5.40;99.90
53053;DHT22;38934;52.690;6.184;2023-04-25T02:52:18;5.40;99.90
53053;DHT22;38934;52.690;6.184;2023-04-25T02:54:44;5.40;99.90
53053;DHT22;38934;52.690;6.184;2023-04-25T02:57:10;5.40;99.90
53053;DHT22;38934;52.690;6.184;2023-04-25T02:59:36;5.30;99.90
53053;DHT22;38934;52.690;6.184;2023-04-25T03:02:02;5.30;99.90
53053;DHT22;38934;52.690;6.184;2023-04-25T03:04:28;5.30;99.90
53053;DHT22;38934;52.690;6.184;2023-04-25T03:06:54;5.30;99.90
53053;DHT22;38934;52.690;6.184;2023-04-25T03:09:20;5.70;99.90
53053;DHT22;38934;52.690;6.184;2023-04-25T03:11:48;5.30;99.90
53053;DHT22;38934;52.690;6.184;2023-04-25T03:14:14;5.30;99.90
53053;DHT22;38934;52.690;6.184;2023-04-25T03:16:42;5.30;99.90
53053;DHT22;38934;52.690;6.184;2023-04-25T03:19:08;5.30;99.90
53053;DHT22;38934;52.690;6.184;2023-04-25T03:21:35;5.30;99.90
53053;DHT22;38934;52.690;6.184;2023-04-25T03:24:02;5.20;99.90
53053;DHT22;38934;52.690;6.184;2023-04-25T03:26:28;5.20;99.90
53053;DHT22;38934;52.690;6.184;2023-04-25T03:28:54;5.20;99.90
53053;DHT22;38934;52.690;6.184;2023-04-25T03:31:21;5.20;99.90
53053;DHT22;38934;52.690;6.184;2023-04-25T03:33:48;5.20;99.90
53053;DHT22;38934;52.690;6.184;2023-04-25T03:36:15;5.40;99.90
53053;DHT22;38934;52.690;6.184;2023-04-25T03:38:41;5.10;99.90
53053;DHT22;38934;52.690;6.184;2023-04-25T03:41:09;5.10;99.90
53053;DHT22;38934;52.690;6.184;2023-04-25T03:43:36;5.10;99.90
53053;DHT22;38934;52.690;6.184;2023-04-25T03:46:01;5.10;99.90
53053;DHT22;38934;52.690;6.184;2023-04-25T03:48:27;5.10;99.90
53053;DHT22;38934;52.690;6.184;2023-04-25T03:50:54;5.10;99.90
53053;DHT22;38934;52.690;6.184;2023-04-25T03:53:20;5.10;99.90
53053;DHT22;38934;52.690;6.184;2023-04-25T03:55:48;5.10;99.90
53053;DHT22;38934;52.690;6.184;2023-04-25T03:58:23;5.30;99.90
53053;DHT22;38934;52.690;6.184;2023-04-25T04:00:49;5.00;99.90
53053;DHT22;38934;52.690;6.184;2023-04-25T04:03:17;5.00;99.90
53053;DHT22;38934;52.690;6.184;2023-04-25T04:05:44;5.00;99.90
53053;DHT22;38934;52.690;6.184;2023-04-25T04:08:12;5.00;99.90
53053;DHT22;38934;52.690;6.184;2023-04-25T04:10:39;5.00;99.90
53053;DHT22;38934;52.690;6.184;2023-04-25T04:13:07;5.60;99.90
53053;DHT22;38934;52.690;6.184;2023-04-25T04:15:38;4.90;99.90
53053;DHT22;38934;52.690;6.184;2023-04-25T04:18:06;4.90;99.90
53053;DHT22;38934;52.690;6.184;2023-04-25T04:20:32;4.90;99.90
53053;DHT22;38934;52.690;6.184;2023-04-25T04:22:57;4.90;99.90
53053;DHT22;38934;52.690;6.184;2023-04-25T04:25:23;4.90;99.90
53053;DHT22;38934;52.690;6.184;2023-04-25T04:27:50;4.90;99.90
53053;DHT22;38934;52.690;6.184;2023-04-25T04:30:23;4.90;99.90
53053;DHT22;38934;52.690;6.184;2023-04-25T04:32:57;5.80;99.90
53053;DHT22;38934;52.690;6.184;2023-04-25T04:35:23;4.90;99.90
53053;DHT22;38934;52.690;6.184;2023-04-25T04:37:49;4.90;99.90
53053;DHT22;38934;52.690;6.184;2023-04-25T04:40:29;4.90;99.90
53053;DHT22;38934;52.690;6.184;2023-04-25T04:42:56;4.90;99.90
53053;DHT22;38934;52.690;6.184;2023-04-25T04:45:23;4.90;99.90
53053;DHT22;38934;52.690;6.184;2023-04-25T04:47:55;4.90;99.90
53053;DHT22;38934;52.690;6.184;2023-04-25T04:50:21;4.80;99.90
53053;DHT22;38934;52.690;6.184;2023-04-25T04:52:46;4.90;99.90
53053;DHT22;38934;52.690;6.184;2023-04-25T04:55:12;5.70;99.90
53053;DHT22;38934;52.690;6.184;2023-04-25T04:57:41;4.90;99.90
53053;DHT22;38934;52.690;6.184;2023-04-25T05:00:11;4.90;99.90
53053;DHT22;38934;52.690;6.184;2023-04-25T05:02:38;4.90;99.90
53053;DHT22;38934;52.690;6.184;2023-04-25T05:05:05;4.90;99.90
53053;DHT22;38934;52.690;6.184;2023-04-25T05:07:31;5.00;99.90
53053;DHT22;38934;52.690;6.184;2023-04-25T05:09:56;5.00;99.90
53053;DHT22;38934;52.690;6.184;2023-04-25T05:12:25;5.00;99.90
53053;DHT22;38934;52.690;6.184;2023-04-25T05:14:50;5.00;99.90
53053;DHT22;38934;52.690;6.184;2023-04-25T05:17:22;5.10;99.90
53053;DHT22;38934;52.690;6.184;2023-04-25T05:19:48;5.10;99.90
53053;DHT22;38934;52.690;6.184;2023-04-25T05:22:13;5.10;99.90
53053;DHT22;38934;52.690;6.184;2023-04-25T05:24:39;5.10;99.90
53053;DHT22;38934;52.690;6.184;2023-04-25T05:27:08;5.10;99.90
53053;DHT22;38934;52.690;6.184;2023-04-25T05:29:39;5.10;99.90
53053;DHT22;38934;52.690;6.184;2023-04-25T05:32:05;5.00;99.90
53053;DHT22;38934;52.690;6.184;2023-04-25T05:34:33;5.00;99.90
53053;DHT22;38934;52.690;6.184;2023-04-25T05:37:01;5.00;99.90
53053;DHT22;38934;52.690;6.184;2023-04-25T05:39:27;5.10;99.90
53053;DHT22;38934;52.690;6.184;2023-04-25T05:41:52;5.20;99.90
53053;DHT22;38934;52.690;6.184;2023-04-25T05:44:18;5.30;99.90
53053;DHT22;38934;52.690;6.184;2023-04-25T05:46:44;5.40;99.90
53053;DHT22;38934;52.690;6.184;2023-04-25T05:49:10;5.50;99.90
53053;DHT22;38934;52.690;6.184;2023-04-25T05:51:36;5.60;99.90
53053;DHT22;38934;52.690;6.184;2023-04-25T05:54:01;5.60;99.90
53053;DHT22;38934;52.690;6.184;2023-04-25T05:56:27;5.60;99.90
53053;DHT22;38934;52.690;6.184;2023-04-25T05:58:53;5.60;99.90
53053;DHT22;38934;52.690;6.184;2023-04-25T06:01:19;5.60;99.90
53053;DHT22;38934;52.690;6.184;2023-04-25T06:03:45;5.70;99.90
53053;DHT22;38934;52.690;6.184;2023-04-25T06:06:11;6.00;99.90
53053;DHT22;38934;52.690;6.184;2023-04-25T06:08:37;5.80;99.90
53053;DHT22;38934;52.690;6.184;2023-04-25T06:11:04;5.90;99.90
53053;DHT22;38934;52.690;6.184;2023-04-25T06:13:31;5.90;99.90
53053;DHT22;38934;52.690;6.184;2023-04-25T06:15:57;6.00;99.90
53053;DHT22;38934;52.690;6.184;2023-04-25T06:18:23;6.00;99.90
53053;DHT22;38934;52.690;6.184;2023-04-25T06:20:49;6.10;99.90
53053;DHT22;38934;52.690;6.184;2023-04-25T06:23:15;6.10;99.90
53053;DHT22;38934;52.690;6.184;2023-04-25T06:25:41;6.00;99.90
53053;DHT22;38934;52.690;6.184;2023-04-25T06:28:07;6.00;99.90
53053;DHT22;38934;52.690;6.184;2023-04-25T06:30:32;5.90;99.90
53053;DHT22;38934;52.690;6.184;2023-04-25T06:32:58;6.00;99.90
53053;DHT22;38934;52.690;6.184;2023-04-25T06:35:25;5.80;99.90
53053;DHT22;38934;52.690;6.184;2023-04-25T06:37:51;5.90;99.90
53053;DHT22;38934;52.690;6.184;2023-04-25T06:40:16;5.90;99.90
53053;DHT22;38934;52.690;6.184;2023-04-25T06:42:43;6.00;99.90
53053;DHT22;38934;52.690;6.184;2023-04-25T06:45:09;6.00;99.90
53053;DHT22;38934;52.690;6.184;2023-04-25T06:47:35;6.10;99.90
53053;DHT22;38934;52.690;6.184;2023-04-25T06:50:03;6.30;99.90
53053;DHT22;38934;52.690;6.184;2023-04-25T06:52:29;6.50;99.90
53053;DHT22;38934;52.690;6.184;2023-04-25T06:54:55;6.70;99.90
53053;DHT22;38934;52.690;6.184;2023-04-25T06:57:21;6.80;99.90
53053;DHT22;38934;52.690;6.184;2023-04-25T06:59:46;7.00;99.90
53053;DHT22;38934;52.690;6.184;2023-04-25T07:02:12;7.10;99.90
53053;DHT22;38934;52.690;6.184;2023-04-25T07:04:38;7.30;99.90
53053;DHT22;38934;52.690;6.184;2023-04-25T07:07:03;7.30;99.90
53053;DHT22;38934;52.690;6.184;2023-04-25T07:09:29;7.40;99.90
53053;DHT22;38934;52.690;6.184;2023-04-25T07:11:55;7.50;99.90
53053;DHT22;38934;52.690;6.184;2023-04-25T07:14:22;7.50;99.90
53053;DHT22;38934;52.690;6.184;2023-04-25T07:16:48;7.80;99.90
53053;DHT22;38934;52.690;6.184;2023-04-25T07:19:14;7.60;99.90
53053;DHT22;38934;52.690;6.184;2023-04-25T07:21:39;7.70;99.90
53053;DHT22;38934;52.690;6.184;2023-04-25T07:24:05;7.80;99.90
53053;DHT22;38934;52.690;6.184;2023-04-25T07:26:31;7.90;99.90
53053;DHT22;38934;52.690;6.184;2023-04-25T07:28:57;7.90;99.90
53053;DHT22;38934;52.690;6.184;2023-04-25T07:31:23;8.00;99.90
53053;DHT22;38934;52.690;6.184;2023-04-25T07:33:51;8.00;99.90
53053;DHT22;38934;52.690;6.184;2023-04-25T07:36:18;8.00;99.90
53053;DHT22;38934;52.690;6.184;2023-04-25T07:38:44;8.00;99.90
53053;DHT22;38934;52.690;6.184;2023-04-25T07:41:10;8.00;99.90
53053;DHT22;38934;52.690;6.184;2023-04-25T07:43:35;7.90;99.90
53053;DHT22;38934;52.690;6.184;2023-04-25T07:46:01;8.10;99.90
53053;DHT22;38934;52.690;6.184;2023-04-25T07:48:30;7.80;99.90
53053;DHT22;38934;52.690;6.184;2023-04-25T07:50:56;7.80;99.90
53053;DHT22;38934;52.690;6.184;2023-04-25T07:53:23;7.90;99.90
53053;DHT22;38934;52.690;6.184;2023-04-25T07:55:50;8.00;99.90
53053;DHT22;38934;52.690;6.184;2023-04-25T07:58:16;8.10;99.90
53053;DHT22;38934;52.690;6.184;2023-04-25T08:00:46;8.20;99.90
53053;DHT22;38934;52.690;6.184;2023-04-25T08:03:12;9.20;99.90
53053;DHT22;38934;52.690;6.184;2023-04-25T08:05:38;8.50;99.90
53053;DHT22;38934;52.690;6.184;2023-04-25T08:08:07;8.70;99.90
53053;DHT22;38934;52.690;6.184;2023-04-25T08:10:33;8.70;99.90
53053;DHT22;38934;52.690;6.184;2023-04-25T08:12:59;8.50;99.90
53053;DHT22;38934;52.690;6.184;2023-04-25T08:15:25;8.30;99.90
53053;DHT22;38934;52.690;6.184;2023-04-25T08:17:52;7.80;99.90
53053;DHT22;38934;52.690;6.184;2023-04-25T08:20:19;7.50;99.90
53053;DHT22;38934;52.690;6.184;2023-04-25T08:22:45;7.30;99.90
53053;DHT22;38934;52.690;6.184;2023-04-25T08:25:11;7.20;99.90
53053;DHT22;38934;52.690;6.184;2023-04-25T08:27:36;7.30;99.90
53053;DHT22;38934;52.690;6.184;2023-04-25T08:30:03;7.40;99.90
53053;DHT22;38934;52.690;6.184;2023-04-25T08:32:30;7.40;99.90
53053;DHT22;38934;52.690;6.184;2023-04-25T08:34:55;7.50;99.90
53053;DHT22;38934;52.690;6.184;2023-04-25T08:37:21;7.60;99.90
53053;DHT22;38934;52.690;6.184;2023-04-25T08:39:47;7.60;99.90
53053;DHT22;38934;52.690;6.184;2023-04-25T08:42:18;7.80;99.90
53053;DHT22;38934;52.690;6.184;2023-04-25T08:44:47;7.80;99.90
53053;DHT22;38934;52.690;6.184;2023-04-25T08:47:15;7.80;99.90
53053;DHT22;38934;52.690;6.184;2023-04-25T08:49:45;7.70;99.90
53053;DHT22;38934;52.690;6.184;2023-04-25T08:52:13;7.80;99.90
53053;DHT22;38934;52.690;6.184;2023-04-25T08:54:42;7.80;99.90
53053;DHT22;38934;52.690;6.184;2023-04-25T08:57:09;8.00;99.90
53053;DHT22;38934;52.690;6.184;2023-04-25T08:59:36;8.20;99.90
53053;DHT22;38934;52.690;6.184;2023-04-25T09:02:04;8.30;99.90
53053;DHT22;38934;52.690;6.184;2023-04-25T09:04:33;8.50;99.90
53053;DHT22;38934;52.690;6.184;2023-04-25T09:06:59;8.80;99.90
53053;DHT22;38934;52.690;6.184;2023-04-25T09:09:24;8.80;99.90
53053;DHT22;38934;52.690;6.184;2023-04-25T09:11:50;9.00;99.90
53053;DHT22;38934;52.690;6.184;2023-04-25T09:14:20;9.90;99.90
53053;DHT22;38934;52.690;6.184;2023-04-25T09:19:23;9.40;99.90
53053;DHT22;38934;52.690;6.184;2023-04-25T09:21:49;9.10;99.90
53053;DHT22;38934;52.690;6.184;2023-04-25T09:24:16;9.10;99.90
53053;DHT22;38934;52.690;6.184;2023-04-25T09:26:41;9.80;99.90
53053;DHT22;38934;52.690;6.184;2023-04-25T09:29:07;9.00;99.90
53053;DHT22;38934;52.690;6.184;2023-04-25T09:31:33;8.90;99.90
53053;DHT22;38934;52.690;6.184;2023-04-25T09:34:00;8.90;99.90
53053;DHT22;38934;52.690;6.184;2023-04-25T09:36:29;9.10;99.90
53053;DHT22;38934;52.690;6.184;2023-04-25T09:38:55;9.40;99.90
53053;DHT22;38934;52.690;6.184;2023-04-25T09:41:25;10.30;99.90
53053;DHT22;38934;52.690;6.184;2023-04-25T09:43:51;11.00;99.90
53053;DHT22;38934;52.690;6.184;2023-04-25T09:46:23;11.90;99.90
53053;DHT22;38934;52.690;6.184;2023-04-25T09:48:51;12.60;99.90
53053;DHT22;38934;52.690;6.184;2023-04-25T09:51:16;12.90;99.90
53053;DHT22;38934;52.690;6.184;2023-04-25T09:53:44;13.20;99.90
53053;DHT22;38934;52.690;6.184;2023-04-25T09:56:12;12.70;99.90
53053;DHT22;38934;52.690;6.184;2023-04-25T09:58:40;12.80;99.90
53053;DHT22;38934;52.690;6.184;2023-04-25T10:01:09;11.40;99.90
53053;DHT22;38934;52.690;6.184;2023-04-25T10:03:38;10.90;99.90
53053;DHT22;38934;52.690;6.184;2023-04-25T10:06:08;10.40;99.90
53053;DHT22;38934;52.690;6.184;2023-04-25T10:08:37;10.20;99.90
53053;DHT22;38934;52.690;6.184;2023-04-25T10:11:06;10.20;99.90
53053;DHT22;38934;52.690;6.184;2023-04-25T10:13:33;10.20;99.90
53053;DHT22;38934;52.690;6.184;2023-04-25T10:16:01;10.30;99.90
53053;DHT22;38934;52.690;6.184;2023-04-25T10:18:29;10.30;99.90
53053;DHT22;38934;52.690;6.184;2023-04-25T10:20:57;10.40;99.90
53053;DHT22;38934;52.690;6.184;2023-04-25T10:23:23;10.40;99.90
53053;DHT22;38934;52.690;6.184;2023-04-25T10:25:53;10.10;99.90
53053;DHT22;38934;52.690;6.184;2023-04-25T10:28:21;9.60;99.90
53053;DHT22;38934;52.690;6.184;2023-04-25T10:31:00;9.20;99.90
53053;DHT22;38934;52.690;6.184;2023-04-25T10:33:34;8.90;99.90
53053;DHT22;38934;52.690;6.184;2023-04-25T10:36:15;8.60;99.90
53053;DHT22;38934;52.690;6.184;2023-04-25T10:38:45;8.50;99.90
53053;DHT22;38934;52.690;6.184;2023-04-25T10:41:12;8.60;99.90
53053;DHT22;38934;52.690;6.184;2023-04-25T10:43:41;8.90;99.90
53053;DHT22;38934;52.690;6.184;2023-04-25T10:46:22;9.10;99.90
53053;DHT22;38934;52.690;6.184;2023-04-25T10:48:52;9.10;99.90
53053;DHT22;38934;52.690;6.184;2023-04-25T10:51:27;9.10;99.90
53053;DHT22;38934;52.690;6.184;2023-04-25T10:54:03;9.00;99.90
53053;DHT22;38934;52.690;6.184;2023-04-25T10:56:41;8.90;99.90
53053;DHT22;38934;52.690;6.184;2023-04-25T11:01:54;9.00;99.90
53053;DHT22;38934;52.690;6.184;2023-04-25T11:04:27;9.00;99.90
53053;DHT22;38934;52.690;6.184;2023-04-25T11:09:34;9.30;99.90
53053;DHT22;38934;52.690;6.184;2023-04-25T11:12:00;9.50;99.90
53053;DHT22;38934;52.690;6.184;2023-04-25T11:14:26;9.80;99.90
53053;DHT22;38934;52.690;6.184;2023-04-25T11:16:53;9.90;99.90
53053;DHT22;38934;52.690;6.184;2023-04-25T11:19:21;10.00;99.90
53053;DHT22;38934;52.690;6.184;2023-04-25T11:21:47;10.10;99.90
53053;DHT22;38934;52.690;6.184;2023-04-25T11:24:13;10.20;99.90
53053;DHT22;38934;52.690;6.184;2023-04-25T11:26:41;11.30;99.90
53053;DHT22;38934;52.690;6.184;2023-04-25T11:29:08;10.40;99.90
53053;DHT22;38934;52.690;6.184;2023-04-25T11:31:34;10.30;99.90
53053;DHT22;38934;52.690;6.184;2023-04-25T11:34:00;10.40;99.90
53053;DHT22;38934;52.690;6.184;2023-04-25T11:36:26;10.40;99.90
53053;DHT22;38934;52.690;6.184;2023-04-25T11:38:53;10.60;99.90
53053;DHT22;38934;52.690;6.184;2023-04-25T11:41:19;10.80;99.90
53053;DHT22;38934;52.690;6.184;2023-04-25T11:43:45;10.90;99.90
53053;DHT22;38934;52.690;6.184;2023-04-25T11:46:11;10.90;99.90
53053;DHT22;38934;52.690;6.184;2023-04-25T11:48:41;10.90;99.90
53053;DHT22;38934;52.690;6.184;2023-04-25T11:51:07;10.80;99.90
53053;DHT22;38934;52.690;6.184;2023-04-25T11:53:33;10.90;99.90
53053;DHT22;38934;52.690;6.184;2023-04-25T11:55:59;11.10;99.90
53053;DHT22;38934;52.690;6.184;2023-04-25T11:58:26;11.00;99.90
53053;DHT22;38934;52.690;6.184;2023-04-25T12:00:53;10.80;99.90
53053;DHT22;38934;52.690;6.184;2023-04-25T12:03:19;10.30;99.90
53053;DHT22;38934;52.690;6.184;2023-04-25T12:05:46;9.80;99.90
53053;DHT22;38934;52.690;6.184;2023-04-25T12:08:18;9.40;99.90
53053;DHT22;38934;52.690;6.184;2023-04-25T12:10:45;9.10;99.90
53053;DHT22;38934;52.690;6.184;2023-04-25T12:13:37;9.00;99.90
53053;DHT22;38934;52.690;6.184;2023-04-25T12:16:03;8.90;99.90
53053;DHT22;38934;52.690;6.184;2023-04-25T12:18:35;8.90;99.90
53053;DHT22;38934;52.690;6.184;2023-04-25T12:21:04;9.10;99.90
53053;DHT22;38934;52.690;6.184;2023-04-25T12:23:30;9.30;99.90
53053;DHT22;38934;52.690;6.184;2023-04-25T12:25:56;9.60;99.90
53053;DHT22;38934;52.690;6.184;2023-04-25T12:28:23;9.80;99.90
53053;DHT22;38934;52.690;6.184;2023-04-25T12:31:06;10.10;99.90
53053;DHT22;38934;52.690;6.184;2023-04-25T12:33:36;10.10;99.90
53053;DHT22;38934;52.690;6.184;2023-04-25T12:36:03;10.00;99.90
53053;DHT22;38934;52.690;6.184;2023-04-25T12:38:40;10.10;99.90
53053;DHT22;38934;52.690;6.184;2023-04-25T12:41:06;10.30;99.90
53053;DHT22;38934;52.690;6.184;2023-04-25T12:43:32;10.40;99.90
53053;DHT22;38934;52.690;6.184;2023-04-25T12:45:58;10.60;99.90
53053;DHT22;38934;52.690;6.184;2023-04-25T12:48:26;10.60;99.90
53053;DHT22;38934;52.690;6.184;2023-04-25T12:50:52;10.40;99.90
53053;DHT22;38934;52.690;6.184;2023-04-25T12:53:20;10.30;99.90
53053;DHT22;38934;52.690;6.184;2023-04-25T12:55:46;10.20;99.90
53053;DHT22;38934;52.690;6.184;2023-04-25T12:58:13;10.10;99.90
53053;DHT22;38934;52.690;6.184;2023-04-25T13:00:45;10.00;99.90
53053;DHT22;38934;52.690;6.184;2023-04-25T13:03:14;9.90;99.90
53053;DHT22;38934;52.690;6.184;2023-04-25T13:05:40;10.10;99.90
53053;DHT22;38934;52.690;6.184;2023-04-25T13:08:07;10.30;99.90
53053;DHT22;38934;52.690;6.184;2023-04-25T13:10:33;10.60;99.90
53053;DHT22;38934;52.690;6.184;2023-04-25T13:12:59;10.80;99.90
53053;DHT22;38934;52.690;6.184;2023-04-25T13:15:24;10.70;99.90
53053;DHT22;38934;52.690;6.184;2023-04-25T13:17:50;10.70;99.90
53053;DHT22;38934;52.690;6.184;2023-04-25T13:20:16;9.90;99.90
53053;DHT22;38934;52.690;6.184;2023-04-25T13:22:44;9.80;99.90
53053;DHT22;38934;52.690;6.184;2023-04-25T13:25:11;9.90;99.90
53053;DHT22;38934;52.690;6.184;2023-04-25T13:27:37;10.00;99.90
53053;DHT22;38934;52.690;6.184;2023-04-25T13:30:07;10.00;99.90
53053;DHT22;38934;52.690;6.184;2023-04-25T13:32:34;10.00;99.90
53053;DHT22;38934;52.690;6.184;2023-04-25T13:35:04;9.80;99.90
53053;DHT22;38934;52.690;6.184;2023-04-25T13:37:30;9.80;99.90
53053;DHT22;38934;52.690;6.184;2023-04-25T13:40:00;9.80;99.90
53053;DHT22;38934;52.690;6.184;2023-04-25T13:42:26;9.80;99.90
53053;DHT22;38934;52.690;6.184;2023-04-25T13:44:51;10.50;99.90
53053;DHT22;38934;52.690;6.184;2023-04-25T13:47:17;10.00;99.90
53053;DHT22;38934;52.690;6.184;2023-04-25T13:49:43;10.10;99.90
53053;DHT22;38934;52.690;6.184;2023-04-25T13:52:08;10.30;99.90
53053;DHT22;38934;52.690;6.184;2023-04-25T13:54:34;10.00;99.90
53053;DHT22;38934;52.690;6.184;2023-04-25T13:56:59;9.90;99.90
53053;DHT22;38934;52.690;6.184;2023-04-25T13:59:27;9.80;99.90
53053;DHT22;38934;52.690;6.184;2023-04-25T14:01:52;9.70;99.90
53053;DHT22;38934;52.690;6.184;2023-04-25T14:04:18;9.60;99.90
53053;DHT22;38934;52.690;6.184;2023-04-25T14:06:44;9.60;99.90
53053;DHT22;38934;52.690;6.184;2023-04-25T14:09:10;9.50;99.90
53053;DHT22;38934;52.690;6.184;2023-04-25T14:11:39;9.50;99.90
53053;DHT22;38934;52.690;6.184;2023-04-25T14:14:04;9.40;99.90
53053;DHT22;38934;52.690;6.184;2023-04-25T14:16:31;9.30;99.90
53053;DHT22;38934;52.690;6.184;2023-04-25T14:18:59;9.30;99.90
53053;DHT22;38934;52.690;6.184;2023-04-25T14:21:28;9.30;99.90
53053;DHT22;38934;52.690;6.184;2023-04-25T14:23:54;9.20;99.90
53053;DHT22;38934;52.690;6.184;2023-04-25T14:26:20;9.20;99.90
53053;DHT22;38934;52.690;6.184;2023-04-25T14:28:46;9.20;99.90
53053;DHT22;38934;52.690;6.184;2023-04-25T14:31:11;9.10;99.90
53053;DHT22;38934;52.690;6.184;2023-04-25T14:33:37;9.10;99.90
53053;DHT22;38934;52.690;6.184;2023-04-25T14:36:10;9.20;99.90
53053;DHT22;38934;52.690;6.184;2023-04-25T14:38:36;9.30;99.90
53053;DHT22;38934;52.690;6.184;2023-04-25T14:41:03;9.30;99.90
53053;DHT22;38934;52.690;6.184;2023-04-25T14:43:29;9.30;99.90
53053;DHT22;38934;52.690;6.184;2023-04-25T14:45:55;9.30;99.90
53053;DHT22;38934;52.690;6.184;2023-04-25T14:48:20;9.20;99.90
53053;DHT22;38934;52.690;6.184;2023-04-25T14:50:46;9.10;99.90
53053;DHT22;38934;52.690;6.184;2023-04-25T14:53:12;9.10;99.90
53053;DHT22;38934;52.690;6.184;2023-04-25T14:55:38;8.80;99.90
53053;DHT22;38934;52.690;6.184;2023-04-25T14:58:04;8.70;99.90
53053;DHT22;38934;52.690;6.184;2023-04-25T15:00:30;8.50;99.90
53053;DHT22;38934;52.690;6.184;2023-04-25T15:02:57;8.40;99.90
53053;DHT22;38934;52.690;6.184;2023-04-25T15:05:23;8.30;99.90
53053;DHT22;38934;52.690;6.184;2023-04-25T15:07:49;8.40;99.90
53053;DHT22;38934;52.690;6.184;2023-04-25T15:10:16;8.60;99.90
53053;DHT22;38934;52.690;6.184;2023-04-25T15:12:45;8.80;99.90
53053;DHT22;38934;52.690;6.184;2023-04-25T15:15:11;9.10;99.90
53053;DHT22;38934;52.690;6.184;2023-04-25T15:17:44;9.30;99.90
53053;DHT22;38934;52.690;6.184;2023-04-25T15:20:11;9.60;99.90
53053;DHT22;38934;52.690;6.184;2023-04-25T15:22:38;9.80;99.90
53053;DHT22;38934;52.690;6.184;2023-04-25T15:25:04;10.10;99.90
53053;DHT22;38934;52.690;6.184;2023-04-25T15:27:30;10.30;99.90
53053;DHT22;38934;52.690;6.184;2023-04-25T15:29:56;10.40;99.90
53053;DHT22;38934;52.690;6.184;2023-04-25T15:32:21;10.60;99.90
53053;DHT22;38934;52.690;6.184;2023-04-25T15:34:48;10.60;99.90
53053;DHT22;38934;52.690;6.184;2023-04-25T15:37:15;10.60;99.90
53053;DHT22;38934;52.690;6.184;2023-04-25T15:39:40;10.50;99.90
53053;DHT22;38934;52.690;6.184;2023-04-25T15:42:07;10.40;99.90
53053;DHT22;38934;52.690;6.184;2023-04-25T15:44:35;10.90;99.90
53053;DHT22;38934;52.690;6.184;2023-04-25T15:47:01;10.30;99.90
53053;DHT22;38934;52.690;6.184;2023-04-25T15:49:27;10.10;99.90
53053;DHT22;38934;52.690;6.184;2023-04-25T15:51:53;10.00;99.90